Flin Flon Airport
CYFO : now visible

Airfield :











YOU CAN JOIN US ON...

 
LOGIN :

Register | Disclaimer

   EN    FR    IT 

 









Legend :    VFR   Marginal VFR   IFR   Intensive IFR   Very Intensive IFR
Visi :
Ceiling :
>= 8 km
>= 3000ft
5 to 8 km
1000 to 3000 ft
1500m to 5 km
500 to 1000 ft
800 to 1500m
200 to 500 ft
< 800m
< 200 ft
Symbols :   Thunderstorms  Fog  Heavy snow  Heavy precipitations  Wind > 20 kt






- Airport Elevation : 997 ft
- IATA code : YFO


CYFO - Flin Flon

CURRENT METAR :
  • 271800Z 11010G17KT 070V140 2SM -SN DRSN OVC011 M05/M07 A2967 RMK SC8 SLP072

EXPIRED METARs :
  • 271748Z CCA 11007KT 2 1/2SM -SN DRSN OVC009 M05/M07 A2968 RMK SC8 SLP075
  • 271700Z 11006KT 080V150 15SM -SN FEW015 SCT050 OVC090 M06/M08 A2970 RMK SC1SC3AC5 SC TR SLP082
  • 271633Z 12007KT 15SM -SN FEW015 BKN050 OVC080 M07/M08 A2970 RMK SC1SC6AC2 SC TR SLP083
  • 271600Z 12007KT 080V150 15SM FEW010 BKN085 BKN120 M07/M09 A2971 RMK SF1AC5AC2 SF TR SLP084

TAF N/A
CZWG FIR / North America



MET'MAP, your aeronautical weather chart ! - Copyright ORBIFLY December 2007 - Disclaimer

ORBIFLY MET'MAP TEAM :

Programming & Development : Alexandra Zaïnal
Original concept : Baudouin d'Aumeries
Technical & hardware support : Manuel Goepfert
Assistance : Marc-Olivier Méhu




SOURCES & CREDITS :

   NOAA       Earth
Advisory